createdAt,value
2023-05-18T00:00:27.070Z,23.68
2023-05-18T00:01:27.123Z,23.68
2023-05-18T00:02:27.232Z,23.68
2023-05-18T00:03:27.357Z,23.67
2023-05-18T00:04:27.275Z,23.67
2023-05-18T00:05:27.426Z,23.65
2023-05-18T00:06:27.378Z,23.68
2023-05-18T00:07:27.425Z,23.68
2023-05-18T00:08:27.474Z,23.68
2023-05-18T00:09:27.531Z,23.68
2023-05-18T00:10:27.623Z,23.67
2023-05-18T00:11:27.598Z,23.67
2023-05-18T00:12:27.656Z,23.65
2023-05-18T00:13:27.711Z,23.67
2023-05-18T00:14:27.771Z,23.65
2023-05-18T00:15:27.923Z,23.68
2023-05-18T00:16:27.911Z,23.65
2023-05-18T00:17:27.931Z,23.64
2023-05-18T00:18:28.028Z,23.65
2023-05-18T00:19:28.042Z,23.65
2023-05-18T00:20:28.098Z,23.67
2023-05-18T00:21:28.159Z,23.65
2023-05-18T00:22:28.229Z,23.65
2023-05-18T00:23:28.275Z,23.65
2023-05-18T00:24:28.371Z,23.65
2023-05-18T00:25:28.591Z,23.64
2023-05-18T00:26:28.475Z,23.67
2023-05-18T00:27:28.513Z,23.64
2023-05-18T00:28:28.587Z,23.67
2023-05-18T00:29:28.626Z,23.64
2023-05-18T00:30:28.686Z,23.62
2023-05-18T00:31:28.837Z,23.67
2023-05-18T00:32:28.841Z,23.64
2023-05-18T00:33:28.868Z,23.65
2023-05-18T00:34:28.923Z,23.67
2023-05-18T00:35:29.180Z,23.62
2023-05-18T00:36:29.026Z,23.65
2023-05-18T00:37:29.099Z,23.64
2023-05-18T00:38:29.149Z,23.64
2023-05-18T00:39:29.220Z,23.62
2023-05-18T00:40:29.282Z,23.64
2023-05-18T00:41:29.313Z,23.62
2023-05-18T00:42:29.385Z,23.64
2023-05-18T00:43:29.424Z,23.62
2023-05-18T00:44:29.540Z,23.65
2023-05-18T00:45:29.795Z,23.62
2023-05-18T00:46:29.634Z,23.62
2023-05-18T00:47:29.626Z,23.64
2023-05-18T00:48:29.676Z,23.62
2023-05-18T00:49:29.738Z,23.61
2023-05-18T00:50:29.800Z,23.62
2023-05-18T00:51:29.856Z,23.60
2023-05-18T00:52:29.892Z,23.61
2023-05-18T00:53:29.970Z,23.62
2023-05-18T00:54:30.030Z,23.61
2023-05-18T00:55:30.294Z,23.61
2023-05-18T00:56:30.114Z,23.61
2023-05-18T00:57:30.159Z,23.60
2023-05-18T00:58:30.214Z,23.61
2023-05-18T00:59:30.280Z,23.58
2023-05-18T01:00:30.329Z,23.61
2023-05-18T01:01:30.415Z,23.60
2023-05-18T01:02:30.723Z,23.61
2023-05-18T01:03:30.573Z,23.62
2023-05-18T01:04:30.571Z,23.60
2023-05-18T01:05:30.814Z,23.61
2023-05-18T01:06:30.704Z,23.58
2023-05-18T01:07:30.759Z,23.60
2023-05-18T01:08:30.825Z,23.60
2023-05-18T01:09:30.875Z,23.58
2023-05-18T01:10:30.947Z,23.60
2023-05-18T01:11:31.074Z,23.58
2023-05-18T01:12:31.058Z,23.58
2023-05-18T01:13:31.161Z,23.60
2023-05-18T01:14:31.208Z,23.61
2023-05-18T01:15:31.389Z,23.58
2023-05-18T01:16:31.301Z,23.58
2023-05-18T01:17:31.395Z,23.58
2023-05-18T01:18:31.452Z,23.60
2023-05-18T01:19:31.512Z,23.61
2023-05-18T01:20:31.563Z,23.60
2023-05-18T01:21:31.641Z,23.57
2023-05-18T01:22:31.674Z,23.58
2023-05-18T01:23:31.741Z,23.57
2023-05-18T01:24:31.809Z,23.58
2023-05-18T01:25:32.054Z,23.60
2023-05-18T01:26:31.917Z,23.58
2023-05-18T01:27:31.987Z,23.58
2023-05-18T01:28:32.056Z,23.61
2023-05-18T01:29:32.132Z,23.58
2023-05-18T01:30:32.184Z,23.61
2023-05-18T01:31:32.277Z,23.58
2023-05-18T01:32:32.296Z,23.58
2023-05-18T01:33:32.337Z,23.57
2023-05-18T01:34:32.367Z,23.58
2023-05-18T01:35:32.536Z,23.57
2023-05-18T01:36:32.437Z,23.58
2023-05-18T01:37:32.471Z,23.57
2023-05-18T01:38:32.484Z,23.58
2023-05-18T01:39:32.531Z,23.58
2023-05-18T01:40:32.555Z,23.58
2023-05-18T01:41:32.588Z,23.56
2023-05-18T01:42:32.608Z,23.58
2023-05-18T01:43:32.649Z,23.57
2023-05-18T01:44:32.671Z,23.56
2023-05-18T01:45:32.777Z,23.57
2023-05-18T01:46:32.753Z,23.56
2023-05-18T01:47:32.792Z,23.54
2023-05-18T01:48:32.776Z,23.56
2023-05-18T01:49:32.836Z,23.56
2023-05-18T01:50:32.834Z,23.57
2023-05-18T01:51:32.860Z,23.58
2023-05-18T01:52:32.900Z,23.54
2023-05-18T01:53:32.948Z,23.54
2023-05-18T01:54:32.973Z,23.56
2023-05-18T01:55:32.997Z,23.54
2023-05-18T01:56:33.034Z,23.54
2023-05-18T01:57:33.038Z,23.53
2023-05-18T01:58:33.065Z,23.53
2023-05-18T01:59:33.078Z,23.51
2023-05-18T02:00:33.094Z,23.54
2023-05-18T02:01:33.143Z,23.56
2023-05-18T02:02:33.219Z,23.56
2023-05-18T02:03:33.242Z,23.54
2023-05-18T02:04:33.155Z,23.54
2023-05-18T02:05:33.182Z,23.56
2023-05-18T02:06:33.190Z,23.54
2023-05-18T02:07:33.223Z,23.54
2023-05-18T02:08:33.232Z,23.54
2023-05-18T02:09:33.271Z,23.57
2023-05-18T02:10:33.307Z,23.56
2023-05-18T02:11:33.317Z,23.54
2023-05-18T02:12:33.331Z,23.56
2023-05-18T02:13:33.376Z,23.57
2023-05-18T02:14:33.405Z,23.53
2023-05-18T02:15:33.426Z,23.54
2023-05-18T02:16:33.507Z,23.54
2023-05-18T02:17:33.490Z,23.56
2023-05-18T02:18:33.538Z,23.57
2023-05-18T02:19:33.565Z,23.53
2023-05-18T02:20:33.662Z,23.51
2023-05-18T02:21:33.567Z,23.54
2023-05-18T02:22:33.588Z,23.53
2023-05-18T02:23:33.570Z,23.54
2023-05-18T02:24:33.600Z,23.53
2023-05-18T02:25:33.607Z,23.54
2023-05-18T02:26:33.604Z,23.54
2023-05-18T02:27:33.626Z,23.53
2023-05-18T02:28:33.630Z,23.53
2023-05-18T02:29:33.632Z,23.54
2023-05-18T02:30:33.631Z,23.51
2023-05-18T02:31:33.723Z,23.51
2023-05-18T02:32:33.696Z,23.50
2023-05-18T02:33:33.655Z,23.51
2023-05-18T02:34:33.681Z,23.51
2023-05-18T02:35:33.694Z,23.51
2023-05-18T02:36:33.698Z,23.53
2023-05-18T02:37:33.709Z,23.53
2023-05-18T02:38:33.716Z,23.54
2023-05-18T02:39:33.722Z,23.53
2023-05-18T02:40:33.700Z,23.50
2023-05-18T02:41:33.712Z,23.50
2023-05-18T02:42:33.732Z,23.50
2023-05-18T02:43:33.787Z,23.51
2023-05-18T02:44:33.851Z,23.49
2023-05-18T02:45:34.077Z,23.50
2023-05-18T02:46:33.934Z,23.50
2023-05-18T02:47:34.025Z,23.50
2023-05-18T02:48:34.050Z,23.50
2023-05-18T02:49:34.099Z,23.53
2023-05-18T02:50:34.170Z,23.50
2023-05-18T02:51:34.209Z,23.49
2023-05-18T02:52:34.279Z,23.50
2023-05-18T02:53:34.323Z,23.49
2023-05-18T02:54:34.357Z,23.51
2023-05-18T02:55:34.408Z,23.50
2023-05-18T02:56:34.467Z,23.49
2023-05-18T02:57:34.529Z,23.49
2023-05-18T02:58:34.578Z,23.49
2023-05-18T02:59:34.594Z,23.50
2023-05-18T03:00:34.603Z,23.47
2023-05-18T03:01:34.630Z,23.46
2023-05-18T03:02:34.706Z,23.47
2023-05-18T03:03:34.665Z,23.50
2023-05-18T03:04:34.614Z,23.46
2023-05-18T03:05:34.656Z,23.47
2023-05-18T03:06:34.707Z,23.49
2023-05-18T03:07:34.746Z,23.49
2023-05-18T03:08:34.801Z,23.49
2023-05-18T03:09:34.879Z,23.47
2023-05-18T03:10:34.934Z,23.44
2023-05-18T03:11:35.002Z,23.47
2023-05-18T03:12:35.041Z,23.46
2023-05-18T03:13:35.144Z,23.46
2023-05-18T03:14:35.168Z,23.49
2023-05-18T03:15:35.229Z,23.43
2023-05-18T03:16:35.364Z,23.47
2023-05-18T03:17:35.364Z,23.46
2023-05-18T03:18:35.472Z,23.47
2023-05-18T03:19:35.449Z,23.47
2023-05-18T03:20:35.509Z,23.47
2023-05-18T03:21:35.575Z,23.47
2023-05-18T03:22:35.619Z,23.47
2023-05-18T03:23:35.690Z,23.46
2023-05-18T03:24:35.736Z,23.49
2023-05-18T03:25:35.783Z,23.44
2023-05-18T03:26:35.828Z,23.44
2023-05-18T03:27:35.872Z,23.44
2023-05-18T03:28:35.927Z,23.47
2023-05-18T03:29:35.947Z,23.44
2023-05-18T03:30:35.974Z,23.46
2023-05-18T03:31:36.003Z,23.46
2023-05-18T03:32:36.009Z,23.46
2023-05-18T03:33:35.989Z,23.44
2023-05-18T03:34:36.044Z,23.47
2023-05-18T03:35:36.092Z,23.46
2023-05-18T03:36:36.259Z,23.43
2023-05-18T03:37:36.184Z,23.43
2023-05-18T03:38:36.186Z,23.43
2023-05-18T03:39:36.230Z,23.46
2023-05-18T03:40:36.167Z,23.46
2023-05-18T03:41:36.178Z,23.44
2023-05-18T03:42:36.166Z,23.43
2023-05-18T03:43:36.161Z,23.44
2023-05-18T03:44:36.163Z,23.41
2023-05-18T03:45:36.156Z,23.41
2023-05-18T03:46:36.191Z,23.46
2023-05-18T03:47:36.147Z,23.44
2023-05-18T03:48:36.128Z,23.43
2023-05-18T03:49:36.116Z,23.46
2023-05-18T03:50:36.115Z,23.41
2023-05-18T03:51:36.110Z,23.43
2023-05-18T03:52:36.112Z,23.43
2023-05-18T03:53:36.124Z,23.41
2023-05-18T03:54:36.119Z,23.43
2023-05-18T03:55:36.104Z,23.43
2023-05-18T03:56:36.118Z,23.43
2023-05-18T03:57:36.132Z,23.41
2023-05-18T03:58:36.183Z,23.40
2023-05-18T03:59:36.199Z,23.43
2023-05-18T04:00:36.223Z,23.43
2023-05-18T04:01:36.321Z,23.43
2023-05-18T04:02:36.351Z,23.41
2023-05-18T04:03:36.340Z,23.43
2023-05-18T04:04:36.251Z,23.41
2023-05-18T04:05:36.241Z,23.43
2023-05-18T04:06:36.301Z,23.44
2023-05-18T04:07:36.301Z,23.43
2023-05-18T04:08:36.302Z,23.40
2023-05-18T04:09:36.353Z,23.41
2023-05-18T04:10:36.408Z,23.43
2023-05-18T04:11:36.427Z,23.43
2023-05-18T04:12:36.451Z,23.39
2023-05-18T04:13:36.509Z,23.40
2023-05-18T04:14:36.481Z,23.41
2023-05-18T04:15:36.512Z,23.41
2023-05-18T04:16:36.540Z,23.41
2023-05-18T04:17:36.492Z,23.41
2023-05-18T04:18:36.515Z,23.40
2023-05-18T04:19:36.556Z,23.40
2023-05-18T04:20:36.460Z,23.41
2023-05-18T04:21:36.491Z,23.41
2023-05-18T04:22:36.436Z,23.41
2023-05-18T04:23:36.440Z,23.40
2023-05-18T04:24:36.441Z,23.40
2023-05-18T04:25:36.422Z,23.40
2023-05-18T04:26:36.611Z,23.39
2023-05-18T04:27:36.422Z,23.43
2023-05-18T04:28:36.406Z,23.40
2023-05-18T04:29:36.411Z,23.41
2023-05-18T04:30:36.424Z,23.41
2023-05-18T04:31:36.427Z,23.41
2023-05-18T04:32:36.549Z,23.41
2023-05-18T04:33:36.383Z,23.40
2023-05-18T04:34:36.406Z,23.41
2023-05-18T04:35:36.401Z,23.41
2023-05-18T04:36:36.385Z,23.40
2023-05-18T04:37:36.390Z,23.43
2023-05-18T04:38:36.402Z,23.39
2023-05-18T04:39:36.408Z,23.41
2023-05-18T04:40:36.393Z,23.41
2023-05-18T04:41:36.372Z,23.41
2023-05-18T04:42:36.358Z,23.40
2023-05-18T04:43:36.381Z,23.40
2023-05-18T04:44:36.351Z,23.40
2023-05-18T04:45:36.415Z,23.41
2023-05-18T04:46:36.353Z,23.41
2023-05-18T04:47:36.369Z,23.41
2023-05-18T04:48:36.398Z,23.40
2023-05-18T04:49:36.359Z,23.40
2023-05-18T04:50:36.357Z,23.39
2023-05-18T04:51:36.342Z,23.40
2023-05-18T04:52:36.338Z,23.43
2023-05-18T04:53:36.353Z,23.41
2023-05-18T04:54:36.347Z,23.41
2023-05-18T04:55:36.356Z,23.41
2023-05-18T04:56:36.345Z,23.41
2023-05-18T04:57:36.353Z,23.39
2023-05-18T04:58:36.330Z,23.39
2023-05-18T04:59:36.326Z,23.40
2023-05-18T05:00:36.326Z,23.40
2023-05-18T05:01:36.412Z,23.43
2023-05-18T05:02:36.502Z,23.40
2023-05-18T05:03:36.361Z,23.43
2023-05-18T05:04:36.326Z,23.41
2023-05-18T05:05:36.304Z,23.40
2023-05-18T05:06:36.306Z,23.40
2023-05-18T05:07:36.287Z,23.41
2023-05-18T05:08:36.304Z,23.41
2023-05-18T05:09:36.277Z,23.40
2023-05-18T05:10:36.265Z,23.41
2023-05-18T05:11:36.273Z,23.41
2023-05-18T05:12:36.261Z,23.40
2023-05-18T05:13:36.332Z,23.43
2023-05-18T05:14:36.266Z,23.43
2023-05-18T05:15:36.301Z,23.46
2023-05-18T05:16:36.287Z,23.46
2023-05-18T05:17:36.391Z,23.44
2023-05-18T05:18:36.299Z,23.47
2023-05-18T05:19:36.248Z,23.50
2023-05-18T05:20:36.275Z,23.50
2023-05-18T05:21:36.267Z,23.49
2023-05-18T05:22:36.227Z,23.50
2023-05-18T05:23:36.222Z,23.50
2023-05-18T05:24:36.217Z,23.51
2023-05-18T05:25:36.217Z,23.50
2023-05-18T05:26:36.215Z,23.47
2023-05-18T05:27:36.215Z,23.49
2023-05-18T05:28:36.267Z,23.50
2023-05-18T05:29:36.233Z,23.51
2023-05-18T05:30:36.230Z,23.53
2023-05-18T05:31:36.289Z,23.53
2023-05-18T05:32:36.407Z,23.50
2023-05-18T05:33:36.204Z,23.51
2023-05-18T05:34:36.211Z,23.49
2023-05-18T05:35:36.493Z,23.51
2023-05-18T05:36:36.208Z,23.53
2023-05-18T05:37:36.197Z,23.53
2023-05-18T05:38:36.209Z,23.53
2023-05-18T05:39:36.217Z,23.53
2023-05-18T05:40:36.229Z,23.51
2023-05-18T05:41:36.240Z,23.51
2023-05-18T05:42:36.238Z,23.50
2023-05-18T05:43:36.239Z,23.54
2023-05-18T05:44:36.268Z,23.50
2023-05-18T05:45:36.261Z,23.51
2023-05-18T05:46:36.286Z,23.54
2023-05-18T05:47:36.296Z,23.54
2023-05-18T05:48:36.265Z,23.51
2023-05-18T05:49:36.300Z,23.51
2023-05-18T05:50:36.244Z,23.57
2023-05-18T05:51:36.230Z,23.53
2023-05-18T05:52:36.239Z,23.56
2023-05-18T05:53:36.249Z,23.54
2023-05-18T05:54:36.276Z,23.53
2023-05-18T05:55:36.258Z,23.56
2023-05-18T05:56:36.260Z,23.54
2023-05-18T05:57:36.263Z,23.54
2023-05-18T05:58:36.255Z,23.56
2023-05-18T05:59:36.285Z,23.53
2023-05-18T06:00:36.289Z,23.54
2023-05-18T06:01:36.309Z,23.54
2023-05-18T06:02:36.407Z,23.54
2023-05-18T06:03:36.408Z,23.51
2023-05-18T06:04:36.476Z,23.53
2023-05-18T06:05:36.266Z,23.53
2023-05-18T06:06:36.266Z,23.53
2023-05-18T06:07:36.269Z,23.51
2023-05-18T06:08:36.285Z,23.53
2023-05-18T06:09:36.308Z,23.54
2023-05-18T06:10:36.307Z,23.53
2023-05-18T06:11:36.300Z,23.51
2023-05-18T06:12:36.303Z,23.53
2023-05-18T06:13:36.310Z,23.53
2023-05-18T06:14:36.329Z,23.54
2023-05-18T06:15:36.385Z,23.53
2023-05-18T06:16:36.418Z,23.54
2023-05-18T06:17:36.496Z,23.54
2023-05-18T06:18:36.541Z,23.51
2023-05-18T06:19:36.552Z,23.54
2023-05-18T06:20:36.601Z,23.51
2023-05-18T06:21:36.659Z,23.53
2023-05-18T06:22:36.719Z,23.51
2023-05-18T06:23:37.844Z,23.56
2023-05-18T06:24:36.835Z,23.53
2023-05-18T06:25:36.897Z,23.54
2023-05-18T06:26:36.974Z,23.53
2023-05-18T06:27:37.045Z,23.54
2023-05-18T06:28:37.083Z,23.54
2023-05-18T06:29:37.141Z,23.54
2023-05-18T06:30:37.204Z,23.53
2023-05-18T06:31:37.296Z,23.54
2023-05-18T06:32:37.449Z,23.57
2023-05-18T06:33:37.366Z,23.54
2023-05-18T06:34:37.404Z,23.56
2023-05-18T06:35:37.462Z,23.56
2023-05-18T06:36:37.505Z,23.56
2023-05-18T06:37:37.559Z,23.58
2023-05-18T06:38:37.612Z,23.56
2023-05-18T06:39:37.635Z,23.56
2023-05-18T06:40:37.647Z,23.58
2023-05-18T06:41:37.659Z,23.57
2023-05-18T06:42:37.647Z,23.57
2023-05-18T06:43:37.671Z,23.58
2023-05-18T06:44:37.657Z,23.58
2023-05-18T06:45:38.085Z,23.60
2023-05-18T06:46:37.786Z,23.58
2023-05-18T06:47:37.729Z,23.58
2023-05-18T06:48:37.651Z,23.57
2023-05-18T06:49:37.683Z,23.61
2023-05-18T06:50:37.675Z,23.58
2023-05-18T06:51:37.676Z,23.58
2023-05-18T06:52:37.674Z,23.58
2023-05-18T06:53:37.680Z,23.60
2023-05-18T06:54:37.666Z,23.56
2023-05-18T06:55:37.676Z,23.60
2023-05-18T06:56:37.668Z,23.57
2023-05-18T06:57:37.675Z,23.60
2023-05-18T06:58:37.672Z,23.58
2023-05-18T06:59:37.673Z,23.58
2023-05-18T07:00:37.699Z,23.60
2023-05-18T07:01:37.723Z,23.60
2023-05-18T07:02:37.731Z,23.60
2023-05-18T07:03:37.708Z,23.61
2023-05-18T07:04:37.677Z,23.61
2023-05-18T07:06:37.676Z,23.60
2023-05-18T07:07:37.860Z,23.58
2023-05-18T07:08:37.688Z,23.60
2023-05-18T07:09:37.682Z,23.61
2023-05-18T07:10:37.686Z,23.60
2023-05-18T07:11:37.690Z,23.60
2023-05-18T07:12:37.692Z,23.60
2023-05-18T07:13:37.710Z,23.60
2023-05-18T07:14:37.705Z,23.61
2023-05-18T07:15:37.777Z,23.60
2023-05-18T07:16:37.757Z,23.61
2023-05-18T07:17:37.735Z,23.58
2023-05-18T07:18:37.727Z,23.60
2023-05-18T07:19:37.734Z,23.60
2023-05-18T07:20:37.737Z,23.64
2023-05-18T07:21:37.750Z,23.62
2023-05-18T07:22:37.758Z,23.60
2023-05-18T07:23:37.813Z,23.64
2023-05-18T07:24:37.777Z,23.62
2023-05-18T07:25:37.844Z,23.61
2023-05-18T07:26:37.823Z,23.62
2023-05-18T07:27:37.817Z,23.62
2023-05-18T07:28:37.819Z,23.62
2023-05-18T07:29:37.849Z,23.62
2023-05-18T07:30:37.841Z,23.62
2023-05-18T07:31:37.894Z,23.64
2023-05-18T07:32:37.919Z,23.64
2023-05-18T07:33:40.420Z,23.65
2023-05-18T07:34:37.965Z,23.65
2023-05-18T07:35:37.970Z,23.67
2023-05-18T07:36:37.914Z,23.67
2023-05-18T07:37:37.903Z,23.67
2023-05-18T07:38:37.910Z,23.68
2023-05-18T07:39:37.882Z,23.70
2023-05-18T07:40:37.877Z,23.68
2023-05-18T07:41:37.891Z,23.71
2023-05-18T07:42:37.887Z,23.71
2023-05-18T07:43:37.857Z,23.71
2023-05-18T07:44:37.863Z,23.70
2023-05-18T07:45:37.859Z,23.71
2023-05-18T07:46:37.876Z,23.74
2023-05-18T07:47:37.896Z,23.74
2023-05-18T07:48:39.792Z,23.74
2023-05-18T07:49:37.816Z,23.74
2023-05-18T07:50:37.826Z,23.74
2023-05-18T07:51:37.796Z,23.75
2023-05-18T07:52:37.790Z,23.77
2023-05-18T07:53:37.788Z,23.77
2023-05-18T07:54:37.794Z,23.78
2023-05-18T07:55:37.816Z,23.75
2023-05-18T07:56:37.763Z,23.80
2023-05-18T07:57:37.760Z,23.80
2023-05-18T07:58:37.768Z,23.80
2023-05-18T07:59:37.746Z,23.78
2023-05-18T08:00:37.761Z,23.80
2023-05-18T08:01:37.793Z,23.81
2023-05-18T08:02:37.921Z,23.84
2023-05-18T08:03:38.792Z,23.82
2023-05-18T08:04:37.711Z,23.82
2023-05-18T08:05:37.718Z,23.82
2023-05-18T08:06:37.751Z,23.85
2023-05-18T08:07:37.692Z,23.87
2023-05-18T08:08:37.679Z,23.87
2023-05-18T08:09:37.681Z,23.85
2023-05-18T08:10:37.699Z,23.85
2023-05-18T08:11:37.659Z,23.88
2023-05-18T08:12:37.647Z,23.87
2023-05-18T08:13:37.643Z,23.89
2023-05-18T08:14:37.636Z,23.89
2023-05-18T08:15:37.628Z,23.89
2023-05-18T08:16:37.762Z,23.91
2023-05-18T08:17:37.660Z,23.92
2023-05-18T08:18:37.745Z,23.94
2023-05-18T08:19:39.781Z,23.97
2023-05-18T08:20:37.596Z,23.95
2023-05-18T08:21:37.576Z,23.95
2023-05-18T08:22:37.567Z,23.97
2023-05-18T08:23:37.572Z,23.98
2023-05-18T08:24:37.573Z,23.97
2023-05-18T08:25:37.548Z,24.00
2023-05-18T08:26:37.585Z,23.98
2023-05-18T08:27:37.537Z,24.01
2023-05-18T08:28:37.537Z,23.98
2023-05-18T08:29:37.517Z,24.01
2023-05-18T08:30:37.531Z,24.01
2023-05-18T08:31:37.550Z,23.98
2023-05-18T08:32:37.751Z,23.98
2023-05-18T08:33:37.488Z,23.97
2023-05-18T08:34:37.503Z,24.00
2023-05-18T08:35:37.474Z,24.01
2023-05-18T08:36:37.486Z,24.01
2023-05-18T08:37:37.488Z,23.98
2023-05-18T08:38:37.449Z,24.01
2023-05-18T08:39:37.445Z,24.04
2023-05-18T08:40:37.470Z,24.01
2023-05-18T08:41:37.458Z,24.02
2023-05-18T08:42:49.135Z,24.04
2023-05-18T08:43:38.412Z,24.04
2023-05-18T08:44:37.423Z,24.04
2023-05-18T08:45:37.411Z,24.05
2023-05-18T08:46:37.389Z,24.05
2023-05-18T08:47:37.494Z,24.07
2023-05-18T08:48:37.471Z,24.07
2023-05-18T08:49:37.377Z,24.07
2023-05-18T08:50:37.371Z,24.04
2023-05-18T08:51:37.386Z,24.04
2023-05-18T08:52:37.343Z,24.04
2023-05-18T08:53:37.381Z,24.07
2023-05-18T08:54:37.413Z,24.08
2023-05-18T08:55:37.716Z,24.05
2023-05-18T08:56:37.504Z,24.07
2023-05-18T08:57:37.571Z,24.02
2023-05-18T08:58:37.630Z,24.05
2023-05-18T08:59:37.668Z,24.05
2023-05-18T09:00:37.722Z,24.05
2023-05-18T09:01:37.879Z,24.05
2023-05-18T09:02:37.938Z,24.05
2023-05-18T09:03:37.900Z,24.04
2023-05-18T09:04:38.035Z,24.05
2023-05-18T09:05:38.034Z,24.04
2023-05-18T09:06:38.093Z,24.02
2023-05-18T09:07:38.253Z,24.02
2023-05-18T09:08:38.191Z,24.01
2023-05-18T09:09:38.256Z,23.98
2023-05-18T09:10:38.328Z,23.98
2023-05-18T09:11:38.367Z,23.97
2023-05-18T09:12:38.453Z,23.98
2023-05-18T09:13:38.484Z,23.98
2023-05-18T09:14:38.553Z,23.97
2023-05-18T09:15:38.643Z,23.95
2023-05-18T09:16:38.714Z,23.92
2023-05-18T09:17:38.800Z,23.94
2023-05-18T09:18:38.819Z,23.94
2023-05-18T09:19:38.860Z,23.92
2023-05-18T09:20:38.925Z,23.91
2023-05-18T09:21:38.995Z,23.91
2023-05-18T09:22:39.061Z,23.89
2023-05-18T09:23:39.115Z,23.89
2023-05-18T09:24:39.209Z,23.89
2023-05-18T09:25:39.252Z,23.89
2023-05-18T09:26:39.292Z,23.91
2023-05-18T09:27:39.377Z,23.87
2023-05-18T09:28:39.430Z,23.87
2023-05-18T09:29:39.503Z,23.85
2023-05-18T09:30:39.733Z,23.87
2023-05-18T09:31:39.676Z,23.88
2023-05-18T09:32:39.787Z,23.84
2023-05-18T09:33:39.789Z,23.84
2023-05-18T09:34:39.802Z,23.84
2023-05-18T09:35:39.838Z,23.82
2023-05-18T09:36:39.891Z,23.82
2023-05-18T09:37:39.942Z,23.84
2023-05-18T09:38:40.020Z,23.84
2023-05-18T09:39:40.052Z,23.82
2023-05-18T09:40:40.108Z,23.82
2023-05-18T09:41:40.180Z,23.81
2023-05-18T09:42:40.223Z,23.81
2023-05-18T09:43:40.278Z,23.81
2023-05-18T09:44:40.328Z,23.82
2023-05-18T09:45:40.396Z,23.81
2023-05-18T09:46:40.603Z,23.82
2023-05-18T09:47:40.522Z,23.81
2023-05-18T09:48:40.564Z,23.84
2023-05-18T09:49:40.614Z,23.81
2023-05-18T09:50:40.656Z,23.84
2023-05-18T09:51:40.710Z,23.82
2023-05-18T09:52:40.783Z,23.84
2023-05-18T09:53:40.829Z,23.81
2023-05-18T09:54:40.885Z,23.80
2023-05-18T09:55:40.951Z,23.80
2023-05-18T09:56:40.991Z,23.80
2023-05-18T09:57:41.056Z,23.81
2023-05-18T09:58:41.120Z,23.81
2023-05-18T09:59:41.173Z,23.78
2023-05-18T10:00:41.317Z,23.78
2023-05-18T10:01:41.296Z,23.80
2023-05-18T10:02:41.473Z,23.78
2023-05-18T10:03:41.429Z,23.78
2023-05-18T10:04:41.584Z,23.80
2023-05-18T10:05:41.552Z,23.80
2023-05-18T10:06:41.616Z,23.78
2023-05-18T10:07:41.657Z,23.80
2023-05-18T10:08:41.729Z,23.78
2023-05-18T10:09:41.798Z,23.75
2023-05-18T10:10:42.249Z,23.81
2023-05-18T10:11:41.877Z,23.80
2023-05-18T10:12:41.928Z,23.77
2023-05-18T10:13:42.014Z,23.80
2023-05-18T10:14:42.071Z,23.78
2023-05-18T10:15:42.146Z,23.81
2023-05-18T10:16:42.310Z,23.80
2023-05-18T10:17:42.301Z,23.80
2023-05-18T10:18:42.533Z,23.78
2023-05-18T10:19:42.381Z,23.75
2023-05-18T10:20:42.464Z,23.80
2023-05-18T10:21:42.517Z,23.80
2023-05-18T10:22:42.587Z,23.80
2023-05-18T10:23:42.621Z,23.80
2023-05-18T10:24:42.683Z,23.78
2023-05-18T10:25:42.745Z,23.78
2023-05-18T10:26:42.824Z,23.81
2023-05-18T10:27:42.882Z,23.77
2023-05-18T10:28:42.941Z,23.80
2023-05-18T10:29:42.973Z,23.78
2023-05-18T10:30:43.068Z,23.80
2023-05-18T10:31:43.087Z,23.80
2023-05-18T10:32:43.218Z,23.78
2023-05-18T10:33:43.196Z,23.80
2023-05-18T10:34:43.264Z,23.78
2023-05-18T10:35:43.331Z,23.78
2023-05-18T10:36:43.371Z,23.81
2023-05-18T10:37:43.436Z,23.78
2023-05-18T10:38:43.533Z,23.80
2023-05-18T10:39:43.575Z,23.81
2023-05-18T10:40:43.642Z,23.78
2023-05-18T10:41:43.659Z,23.80
2023-05-18T10:42:43.729Z,23.78
2023-05-18T10:43:43.798Z,23.78
2023-05-18T10:44:43.865Z,23.77
2023-05-18T10:45:43.924Z,23.81
2023-05-18T10:46:44.007Z,23.80
2023-05-18T10:47:44.174Z,23.80
2023-05-18T10:48:44.851Z,23.81
2023-05-18T10:49:44.165Z,23.81
2023-05-18T10:50:44.226Z,23.80
2023-05-18T10:51:44.296Z,23.81
2023-05-18T10:52:44.375Z,23.80
2023-05-18T10:53:44.449Z,23.82
2023-05-18T10:54:44.502Z,23.81
2023-05-18T10:55:44.564Z,23.78
2023-05-18T10:56:44.616Z,23.81
2023-05-18T10:57:44.708Z,23.80
2023-05-18T10:58:44.755Z,23.81
2023-05-18T10:59:46.730Z,23.80
2023-05-18T11:00:44.809Z,23.82
2023-05-18T11:01:44.871Z,23.80
2023-05-18T11:02:44.856Z,23.81
2023-05-18T11:03:44.790Z,23.81
2023-05-18T11:04:44.839Z,23.82
2023-05-18T11:05:44.765Z,23.78
2023-05-18T11:06:44.783Z,23.81
2023-05-18T11:07:44.744Z,23.78
2023-05-18T11:08:44.741Z,23.81
2023-05-18T11:09:44.757Z,23.81
2023-05-18T11:10:44.742Z,23.81
2023-05-18T11:11:44.714Z,23.80
2023-05-18T11:12:44.712Z,23.81
2023-05-18T11:13:44.712Z,23.82
2023-05-18T11:14:44.696Z,23.81
2023-05-18T11:15:44.698Z,23.81
2023-05-18T11:16:44.733Z,23.81
2023-05-18T11:17:44.698Z,23.81
2023-05-18T11:18:44.744Z,23.81
2023-05-18T11:19:44.657Z,23.80
2023-05-18T11:20:44.658Z,23.82
2023-05-18T11:21:44.633Z,23.81
2023-05-18T11:22:44.744Z,23.82
2023-05-18T11:23:44.625Z,23.80
2023-05-18T11:24:44.611Z,23.81
2023-05-18T11:25:44.607Z,23.81
2023-05-18T11:26:44.608Z,23.82
2023-05-18T11:27:44.597Z,23.81
2023-05-18T11:28:44.584Z,23.81
2023-05-18T11:29:44.611Z,23.82
2023-05-18T11:30:44.581Z,23.81
2023-05-18T11:31:44.606Z,23.81
2023-05-18T11:32:44.663Z,23.81
2023-05-18T11:33:44.586Z,23.82
2023-05-18T11:34:44.628Z,23.81
2023-05-18T11:35:44.682Z,23.84
2023-05-18T11:36:44.723Z,23.82
2023-05-18T11:37:44.806Z,23.81
2023-05-18T11:38:44.856Z,23.81
2023-05-18T11:39:55.314Z,23.81
2023-05-18T11:40:45.926Z,23.80
2023-05-18T11:41:44.913Z,23.81
2023-05-18T11:42:44.896Z,23.82
2023-05-18T11:43:44.891Z,23.81
2023-05-18T11:44:44.900Z,23.81
2023-05-18T11:45:44.886Z,23.82
2023-05-18T11:46:44.870Z,23.81
2023-05-18T11:47:44.919Z,23.82
2023-05-18T11:48:44.959Z,23.82
2023-05-18T11:49:45.050Z,23.81
2023-05-18T11:50:45.029Z,23.84
2023-05-18T11:51:45.081Z,23.84
2023-05-18T11:52:45.126Z,23.84
2023-05-18T11:53:45.193Z,23.87
2023-05-18T11:54:45.261Z,23.82
2023-05-18T11:55:45.316Z,23.85
2023-05-18T11:56:45.379Z,23.85
2023-05-18T11:57:45.538Z,23.84
2023-05-18T11:58:45.485Z,23.88
2023-05-18T11:59:45.528Z,23.85
2023-05-18T12:00:45.594Z,23.88
2023-05-18T12:01:45.640Z,23.84
2023-05-18T12:02:46.005Z,23.87
2023-05-18T12:03:48.469Z,23.88
2023-05-18T12:04:45.794Z,23.88
2023-05-18T12:05:45.745Z,23.85
2023-05-18T12:06:45.720Z,23.87
2023-05-18T12:07:45.718Z,23.88
2023-05-18T12:08:45.709Z,23.88
2023-05-18T12:09:45.717Z,23.87
2023-05-18T12:10:45.806Z,23.88
2023-05-18T12:11:45.697Z,23.88
2023-05-18T12:12:45.680Z,23.87
2023-05-18T12:13:45.671Z,23.88
2023-05-18T12:14:45.662Z,23.88
2023-05-18T12:15:45.696Z,23.88
2023-05-18T12:16:45.713Z,23.88
2023-05-18T12:17:45.670Z,23.88
2023-05-18T12:18:45.660Z,23.88
2023-05-18T12:19:45.656Z,23.89
2023-05-18T12:20:45.665Z,23.88
2023-05-18T12:21:45.614Z,23.88
2023-05-18T12:22:45.608Z,23.89
2023-05-18T12:23:45.601Z,23.88
2023-05-18T12:24:45.590Z,23.88
2023-05-18T12:25:45.598Z,23.91
2023-05-18T12:26:45.574Z,23.89
2023-05-18T12:27:45.574Z,23.88
2023-05-18T12:28:45.565Z,23.89
2023-05-18T12:29:45.550Z,23.89
2023-05-18T12:30:45.604Z,23.88
2023-05-18T12:31:45.542Z,23.91
2023-05-18T12:32:45.571Z,23.89
2023-05-18T12:33:45.531Z,23.88
2023-05-18T12:34:45.523Z,23.88
2023-05-18T12:35:45.530Z,23.89
2023-05-18T12:36:45.498Z,23.91
2023-05-18T12:37:46.222Z,23.89
2023-05-18T12:38:45.491Z,23.89
2023-05-18T12:39:45.491Z,23.91
2023-05-18T12:40:45.503Z,23.89
2023-05-18T12:41:45.466Z,23.92
2023-05-18T12:42:45.467Z,23.88
2023-05-18T12:43:45.529Z,23.89
2023-05-18T12:44:45.600Z,23.89
2023-05-18T12:45:45.674Z,23.89
2023-05-18T12:46:45.719Z,23.89
2023-05-18T12:47:45.770Z,23.88
2023-05-18T12:48:45.813Z,23.89
2023-05-18T12:49:45.865Z,23.89
2023-05-18T12:50:46.287Z,23.87
2023-05-18T12:51:45.980Z,23.88
2023-05-18T12:52:46.036Z,23.91
2023-05-18T12:53:46.121Z,23.89